Time;durP1;ratioP1;P1;durP2;ratioP2;P2;SDS_P1;SDS_P2;PMS_P1;PMS_P2;Temp;Humidity;BMP_temperature;BMP_pressure;BME280_temperature;BME280_humidity;BME280_pressure;Samples;Min_cycle;Max_cycle;Signal;HPM_P1;HPM_P2
2021/05/18 00:01:45;;;;;;;2.72;2.17;;;;;;;8.14;86.58;91696.83;1789322;77;21057;-78
2021/05/18 00:04:13;;;;;;;2.95;2.15;;;;;;;8.10;87.12;91691.48;1804674;79;21539;-78
2021/05/18 00:06:41;;;;;;;4.35;2.17;;;;;;;8.07;87.50;91691.56;1831693;77;20984;-78
2021/05/18 00:11:51;;;;;;;3.63;1.67;;;;;;;8.07;87.57;91683.45;1820534;78;21555;-80
2021/05/18 00:14:23;;;;;;;2.80;2.12;;;;;;;8.11;87.47;91673.30;1820405;78;21044;-78
2021/05/18 00:16:51;;;;;;;2.05;1.92;;;;;;;8.16;87.42;91669.51;1820137;78;20893;-77
2021/05/18 00:19:18;;;;;;;1.60;1.50;;;;;;;8.19;87.26;91662.47;1820262;78;21048;-77
2021/05/18 00:21:45;;;;;;;2.60;1.25;;;;;;;8.22;87.31;91658.92;1820355;78;21613;-77
2021/05/18 00:24:12;;;;;;;3.95;2.05;;;;;;;8.24;87.09;91653.86;1789829;79;21108;-79
2021/05/18 00:26:39;;;;;;;5.20;2.15;;;;;;;8.26;87.18;91654.94;1764969;81;21013;-78
2021/05/18 00:29:07;;;;;;;2.55;1.77;;;;;;;8.29;86.72;91651.98;1789630;80;21585;-76
2021/05/18 00:31:33;;;;;;;5.75;3.95;;;;;;;8.30;86.48;91641.31;1765150;81;21030;-78
2021/05/18 00:34:00;;;;;;;8.25;4.87;;;;;;;8.30;86.24;91645.38;1836044;78;21508;-77
2021/05/18 00:36:26;;;;;;;9.63;6.33;;;;;;;8.26;86.45;91640.64;1821571;77;21036;-75
2021/05/18 00:38:52;;;;;;;7.55;4.87;;;;;;;8.21;86.20;91639.21;1821821;77;20982;-77
2021/05/18 00:41:19;;;;;;;4.83;3.52;;;;;;;8.17;85.83;91637.18;1847582;77;21049;-80
2021/05/18 00:43:46;;;;;;;5.60;4.78;;;;;;;8.07;85.57;91634.72;1851669;77;21099;-77
2021/05/18 00:46:12;;;;;;;6.55;4.35;;;;;;;7.96;85.95;91632.25;1846223;76;21485;-76
2021/05/18 00:48:39;;;;;;;7.20;4.20;;;;;;;7.92;86.42;91628.27;1820273;78;21306;-79
2021/05/18 00:51:09;;;;;;;4.15;3.75;;;;;;;7.90;86.82;91632.57;1820598;77;21144;-79
2021/05/18 00:53:38;;;;;;;6.28;3.98;;;;;;;7.88;87.11;91632.25;1835987;77;21652;-78
2021/05/18 00:56:33;;;;;;;4.65;2.80;;;;;;;7.84;87.23;91630.97;1822654;77;21536;-75
2021/05/18 00:58:50;;;;;;;5.47;2.72;;;;;;;7.86;87.49;91630.54;1831799;78;21645;-79
2021/05/18 01:01:19;;;;;;;7.05;4.45;;;;;;;7.90;87.41;91630.66;1772208;78;21054;-80
2021/05/18 01:03:50;;;;;;;8.85;3.95;;;;;;;7.92;87.65;91627.52;1835506;76;21697;-77
2021/05/18 01:11:31;;;;;;;8.23;4.22;;;;;;;8.09;87.35;91628.30;1800591;78;21135;-77
2021/05/18 01:14:05;;;;;;;5.70;3.47;;;;;;;8.11;87.13;91626.67;1839579;77;21066;-79
2021/05/18 01:16:34;;;;;;;5.10;2.80;;;;;;;8.11;86.86;91635.39;1808789;77;21120;-80
2021/05/18 01:19:01;;;;;;;4.85;2.55;;;;;;;8.07;86.06;91627.36;1796879;77;21653;-79
2021/05/18 01:21:28;;;;;;;10.00;4.37;;;;;;;8.00;85.98;91618.80;1826113;78;21076;-77
2021/05/18 01:23:54;;;;;;;4.97;3.08;;;;;;;7.95;86.78;91628.03;1788443;80;21047;-75
2021/05/18 01:26:21;;;;;;;3.30;2.10;;;;;;;7.89;86.85;91627.00;1774369;80;21064;-78
2021/05/18 01:28:48;;;;;;;7.12;2.30;;;;;;;7.87;86.71;91629.38;1816915;78;21080;-77
2021/05/18 01:31:20;;;;;;;2.75;1.92;;;;;;;7.85;86.52;91627.08;1820318;78;21056;-80
2021/05/18 01:33:46;;;;;;;5.58;1.70;;;;;;;7.80;86.35;91622.17;1803035;79;21084;-79
2021/05/18 01:36:20;;;;;;;2.52;1.60;;;;;;;7.77;86.82;91622.41;1797250;79;20984;-76
2021/05/18 01:44:17;;;;;;;4.12;1.42;;;;;;;7.71;87.23;91624.11;1799607;79;24688;-75
2021/05/18 01:46:45;;;;;;;2.90;1.35;;;;;;;7.69;87.55;91635.94;1819887;78;21645;-76
2021/05/18 01:49:13;;;;;;;5.47;1.60;;;;;;;7.67;87.87;91642.38;1789576;79;20910;-79
2021/05/18 01:51:49;;;;;;;5.05;3.42;;;;;;;7.64;88.59;91646.50;1833057;78;21069;-79
2021/05/18 01:59:18;;;;;;;8.98;5.92;;;;;;;7.67;89.15;91655.11;1790244;79;20882;-79
2021/05/18 02:01:47;;;;;;;8.95;4.90;;;;;;;7.71;89.14;91655.23;1837759;76;20977;-79
2021/05/18 02:04:24;;;;;;;6.55;4.58;;;;;;;7.76;89.03;91653.96;1832294;77;21490;-76
2021/05/18 02:06:52;;;;;;;9.78;4.17;;;;;;;7.76;89.13;91655.31;1802729;78;20944;-79
2021/05/18 02:09:19;;;;;;;8.53;3.75;;;;;;;7.78;88.57;91651.58;1815585;79;21016;-77
2021/05/18 02:11:49;;;;;;;7.00;3.60;;;;;;;7.81;88.40;91648.64;1851783;76;21582;-78
2021/05/18 02:14:25;;;;;;;4.60;1.65;;;;;;;7.82;88.13;91649.56;1772990;77;21628;-78
2021/05/18 02:16:46;;;;;;;2.33;1.30;;;;;;;7.82;88.11;91652.86;1760609;80;21486;-76
2021/05/18 02:19:23;;;;;;;2.47;1.40;;;;;;;7.84;88.78;91654.56;1815074;77;21060;-78
2021/05/18 02:26:57;;;;;;;2.70;1.65;;;;;;;7.78;88.84;91646.95;1861798;77;21011;-78
2021/05/18 02:29:24;;;;;;;2.37;1.65;;;;;;;7.73;89.44;91646.68;1854765;77;21490;-79
2021/05/18 02:31:54;;;;;;;1.85;1.52;;;;;;;7.71;89.89;91655.80;1834088;77;20980;-80
2021/05/18 02:34:36;;;;;;;;;;;;;;;7.66;89.98;91656.30;1775787;77;21076;-78
2021/05/18 02:37:04;;;;;;;5.75;3.12;;;;;;;7.64;90.68;91652.67;1840363;78;20155;-77
2021/05/18 02:39:30;;;;;;;5.12;2.42;;;;;;;7.74;90.95;91665.19;1833528;78;20992;-79
2021/05/18 02:41:57;;;;;;;7.42;2.80;;;;;;;7.81;90.28;91662.92;1833913;78;21597;-79
2021/05/18 02:49:57;;;;;;;5.25;2.90;;;;;;;7.78;90.81;91660.48;1848574;76;21066;-77
2021/05/18 02:52:23;;;;;;;7.10;3.35;;;;;;;7.90;90.48;91660.98;1847737;77;21007;-78
2021/05/18 02:54:55;;;;;;;3.87;2.70;;;;;;;7.96;89.96;91662.78;1811445;78;21058;-79
2021/05/18 02:57:34;;;;;;;4.37;2.45;;;;;;;8.00;89.64;91668.12;1759091;81;21159;-77
2021/05/18 03:00:15;;;;;;;2.83;2.22;;;;;;;7.96;90.02;91668.19;1828633;78;21018;-77
2021/05/18 03:02:41;;;;;;;2.98;2.47;;;;;;;7.98;90.19;91659.08;1796052;76;21061;-76
2021/05/18 03:05:09;;;;;;;5.62;2.87;;;;;;;8.01;89.85;91658.23;1824633;77;21030;-79
2021/05/18 03:07:36;;;;;;;3.92;2.47;;;;;;;8.02;89.73;91660.35;1806162;78;21143;-80
2021/05/18 03:10:04;;;;;;;2.87;2.60;;;;;;;8.04;89.78;91664.14;1792626;77;20919;-80
2021/05/18 03:12:30;;;;;;;2.85;2.30;;;;;;;8.00;89.83;91668.12;1834432;78;21099;-76
2021/05/18 03:14:58;;;;;;;3.35;2.15;;;;;;;8.01;90.26;91670.98;1760295;78;21071;-77
2021/05/18 03:17:24;;;;;;;4.60;3.58;;;;;;;8.09;90.23;91671.62;1820674;78;20913;-79
2021/05/18 03:19:50;;;;;;;3.15;2.65;;;;;;;8.24;90.02;91676.88;1795246;78;21779;-80
2021/05/18 03:22:17;;;;;;;4.00;3.50;;;;;;;8.38;89.07;91670.37;1820092;78;21040;-76
2021/05/18 03:24:44;;;;;;;4.20;3.05;;;;;;;8.54;88.71;91681.23;1819910;78;21533;-77
2021/05/18 03:27:10;;;;;;;3.58;2.45;;;;;;;8.66;88.23;91677.83;1819935;78;21044;-75
2021/05/18 03:29:37;;;;;;;3.58;2.40;;;;;;;8.72;87.92;91682.12;1791699;80;21575;-78
2021/05/18 03:34:51;;;;;;;2.92;1.82;;;;;;;8.75;87.26;91691.52;1824219;77;20989;-77
2021/05/18 03:37:24;;;;;;;5.33;1.87;;;;;;;8.82;86.14;91686.53;1823563;77;21712;-77
2021/05/18 03:39:51;;;;;;;1.35;1.25;;;;;;;8.87;84.53;91694.73;1748364;80;21135;-79
2021/05/18 03:42:21;;;;;;;1.60;1.50;;;;;;;8.93;83.86;91692.44;1778555;80;21657;-81
2021/05/18 03:45:09;;;;;;;1.02;0.95;;;;;;;9.00;83.91;91697.69;1823324;78;21758;-80
2021/05/18 03:53:17;;;;;;;0.42;0.30;;;;;;;9.21;81.09;91701.80;1825472;77;20973;-79
2021/05/18 04:03:47;;;;;;;0.10;0.10;;;;;;;9.32;78.44;91700.14;1816760;79;20923;-76
2021/05/18 04:16:57;;;;;;;0.15;0.10;;;;;;;9.32;76.01;91714.30;1782783;80;20912;-77
2021/05/18 04:19:28;;;;;;;4.35;0.60;;;;;;;9.33;76.26;91721.27;1782749;80;21004;-77
2021/05/18 04:22:13;;;;;;;0.33;0.33;;;;;;;9.34;75.74;91717.36;1782525;80;21060;-77
2021/05/18 04:24:46;;;;;;;0.20;0.20;;;;;;;9.33;74.90;91717.96;1856623;77;21090;-77
2021/05/18 04:49:03;;;;;;;0.33;0.10;;;;;;;9.19;72.02;91702.05;1832507;77;21534;-79
2021/05/18 04:59:12;;;;;;;0.37;0.10;;;;;;;9.23;71.04;91702.13;1837492;78;21032;-82
2021/05/18 05:07:01;;;;;;;0.10;0.10;;;;;;;9.19;70.57;91703.41;1834369;78;21546;-78
2021/05/18 05:09:27;;;;;;;0.00;0.00;;;;;;;9.13;70.65;91705.11;1822322;78;20999;-78
2021/05/18 05:14:38;;;;;;;0.08;0.00;;;;;;;9.11;70.53;91701.48;1829409;77;21034;-77
2021/05/18 05:17:04;;;;;;;0.15;0.10;;;;;;;9.11;70.65;91704.79;1837301;78;21409;-78
2021/05/18 05:19:31;;;;;;;0.10;0.03;;;;;;;9.10;70.58;91698.61;1837840;78;20976;-78
2021/05/18 05:22:00;;;;;;;0.10;0.10;;;;;;;9.12;71.02;91697.58;1821325;78;20996;-79
2021/05/18 05:24:26;;;;;;;0.10;0.10;;;;;;;9.12;71.07;91703.59;1819976;78;21090;-82
2021/05/18 05:26:54;;;;;;;0.10;0.10;;;;;;;9.16;70.58;91702.30;1819686;78;21517;-79
2021/05/18 05:29:20;;;;;;;0.10;0.10;;;;;;;9.20;70.49;91704.92;1819926;78;20987;-78
2021/05/18 05:31:48;;;;;;;0.35;0.23;;;;;;;9.22;70.73;91699.25;1818501;78;21130;-79
2021/05/18 05:34:16;;;;;;;0.40;0.10;;;;;;;9.26;71.14;91693.73;1818351;78;21024;-79
2021/05/18 05:36:42;;;;;;;0.20;0.20;;;;;;;9.29;71.40;91696.16;1819055;78;20999;-78
2021/05/18 05:39:18;;;;;;;0.30;0.25;;;;;;;9.37;71.54;91699.64;1819815;78;21008;-78
2021/05/18 05:41:39;;;;;;;0.30;0.13;;;;;;;9.48;70.76;91694.69;1788096;80;21573;-79
2021/05/18 05:44:06;;;;;;;13.03;4.30;;;;;;;9.57;70.33;91694.65;1769300;79;21057;-77
2021/05/18 05:46:33;;;;;;;1.27;0.80;;;;;;;9.62;70.83;91694.87;1816860;79;21498;-76
2021/05/18 05:49:00;;;;;;;0.93;0.30;;;;;;;9.73;70.54;91693.97;1799421;79;21131;-76
2021/05/18 05:51:27;;;;;;;0.20;0.20;;;;;;;9.82;69.80;91696.08;1856021;76;21605;-78
2021/05/18 05:53:58;;;;;;;0.10;0.10;;;;;;;9.89;68.48;91699.95;1818242;77;21132;-79
2021/05/18 05:56:24;;;;;;;2.87;0.15;;;;;;;9.92;68.25;91696.94;1784616;80;21594;-80
2021/05/18 05:58:51;;;;;;;1.17;0.17;;;;;;;9.98;68.75;91693.86;1784130;80;21149;-80
2021/05/18 06:01:17;;;;;;;0.72;0.50;;;;;;;10.08;69.42;91696.88;1785856;80;21700;-77
2021/05/18 06:03:44;;;;;;;2.47;1.92;;;;;;;10.16;68.19;91696.82;1784561;80;21386;-77
2021/05/18 06:06:12;;;;;;;2.25;0.60;;;;;;;10.20;67.74;91695.36;1784308;80;22056;-77
2021/05/18 06:08:45;;;;;;;0.23;0.20;;;;;;;10.19;67.53;91704.67;1781955;80;21111;-78
2021/05/18 06:11:16;;;;;;;0.28;0.28;;;;;;;10.22;68.31;91707.29;1781716;80;21803;-79
2021/05/18 06:16:53;;;;;;;0.30;0.13;;;;;;;10.33;69.17;91707.00;1782160;80;21139;-76
2021/05/18 06:34:05;;;;;;;0.13;0.13;;;;;;;10.56;68.84;91709.23;1808550;77;21066;-78
2021/05/18 06:43:17;;;;;;;0.93;0.30;;;;;;;10.76;66.86;91712.48;1843894;77;21048;-78
2021/05/18 06:48:14;;;;;;;0.42;0.42;;;;;;;10.81;66.64;91708.45;1756519;80;21063;-74
2021/05/18 06:50:41;;;;;;;0.70;0.37;;;;;;;10.83;67.10;91707.39;1806152;77;21142;-74
2021/05/18 06:53:07;;;;;;;0.40;0.30;;;;;;;10.85;67.93;91702.30;1858222;77;21079;-75
2021/05/18 06:55:35;;;;;;;2.42;0.40;;;;;;;10.91;68.10;91704.63;1786867;80;21005;-78
2021/05/18 07:00:28;;;;;;;0.47;0.20;;;;;;;10.98;67.02;91693.49;1808220;79;21057;-76
2021/05/18 07:02:57;;;;;;;0.30;0.10;;;;;;;11.07;66.53;91697.67;1819749;78;21012;-77
2021/05/18 07:10:42;;;;;;;0.80;0.75;;;;;;;11.53;66.68;91696.69;1837918;76;21510;-78
2021/05/18 07:13:09;;;;;;;0.75;0.60;;;;;;;11.68;65.68;91692.27;1769481;77;21055;-76
2021/05/18 07:15:36;;;;;;;1.55;0.60;;;;;;;11.81;65.30;91696.30;1809976;79;21102;-78
2021/05/18 07:18:02;;;;;;;1.35;1.20;;;;;;;11.96;64.90;91691.70;1814469;79;21008;-77
2021/05/18 07:20:31;;;;;;;0.98;0.90;;;;;;;12.11;63.78;91694.05;1814377;79;21012;-78
2021/05/18 07:23:06;;;;;;;1.70;1.30;;;;;;;12.22;64.31;91690.94;1813569;79;21074;-76
2021/05/18 07:25:28;;;;;;;1.42;0.78;;;;;;;12.34;64.38;91701.00;1786837;80;21053;-79
2021/05/18 07:27:55;;;;;;;2.52;0.35;;;;;;;12.44;64.00;91703.16;1815921;77;21092;-76
2021/05/18 07:30:21;;;;;;;1.87;0.25;;;;;;;12.46;62.98;91700.14;1797351;77;21087;-76
2021/05/18 07:32:48;;;;;;;0.25;0.10;;;;;;;12.38;62.29;91706.47;1804784;79;21099;-75
2021/05/18 07:35:15;;;;;;;0.45;0.20;;;;;;;12.24;62.47;91707.00;1811882;79;21154;-75
2021/05/18 07:37:41;;;;;;;1.85;0.30;;;;;;;12.11;62.57;91705.73;1812683;79;21118;-76
2021/05/18 07:40:08;;;;;;;0.10;0.10;;;;;;;12.06;63.57;91702.81;1811578;79;21099;-76
2021/05/18 07:42:35;;;;;;;0.20;0.20;;;;;;;12.04;63.64;91708.72;1813076;79;21067;-80
2021/05/18 07:45:01;;;;;;;0.90;0.50;;;;;;;12.05;64.36;91708.11;1813940;79;20892;-78
2021/05/18 07:47:33;;;;;;;1.65;0.37;;;;;;;12.10;64.47;91707.53;1814777;78;21119;-77
2021/05/18 07:50:03;;;;;;;0.37;0.37;;;;;;;12.15;64.55;91716.50;1830739;78;21570;-76
2021/05/18 08:00:42;;;;;;;0.80;0.53;;;;;;;12.33;63.82;91712.48;1814004;79;21075;-79
2021/05/18 08:05:53;;;;;;;0.30;0.30;;;;;;;12.38;63.09;91709.80;1775428;79;21082;-79
2021/05/18 08:08:20;;;;;;;0.88;0.40;;;;;;;12.37;62.47;91708.27;1810120;78;21644;-77
2021/05/18 08:10:58;;;;;;;2.27;0.82;;;;;;;12.35;62.44;91712.05;1824317;78;21245;-75
2021/05/18 08:13:22;;;;;;;0.55;0.45;;;;;;;12.33;63.11;91713.09;1808951;78;21612;-79
2021/05/18 08:49:18;;;;;;;0.40;0.40;;;;;;;11.36;64.33;91728.77;1757105;81;21615;-77
2021/05/18 10:36:14;;;;;;;1.10;0.78;;;;;;;11.14;70.57;91785.84;1813335;78;21595;-79
2021/05/18 10:38:48;;;;;;;1.22;0.93;;;;;;;11.10;71.45;91780.38;1832273;77;21114;-78
2021/05/18 10:41:25;;;;;;;0.90;0.72;;;;;;;11.05;72.40;91783.02;1819229;77;21063;-78
2021/05/18 10:44:05;;;;;;;1.52;1.10;;;;;;;11.01;71.71;91784.34;1814580;79;21095;-78
2021/05/18 10:47:02;;;;;;;1.52;0.98;;;;;;;10.95;72.09;91784.14;1810660;78;21582;-77
2021/05/18 10:49:37;;;;;;;1.15;1.05;;;;;;;10.91;72.08;91788.33;1829660;78;21652;-75
2021/05/18 10:52:07;;;;;;;1.52;0.88;;;;;;;10.89;72.98;91792.67;1790534;78;21069;-80
2021/05/18 10:54:41;;;;;;;1.67;1.27;;;;;;;10.88;73.09;91791.16;1803418;79;21523;-75
2021/05/18 10:57:11;;;;;;;1.75;0.88;;;;;;;10.89;72.72;91794.78;1812495;79;21111;-77
2021/05/18 10:59:48;;;;;;;0.95;0.80;;;;;;;10.92;72.52;91792.56;1805513;79;21605;-80
2021/05/18 11:02:25;;;;;;;1.02;0.60;;;;;;;10.96;71.49;91790.33;1805774;78;21076;-77
2021/05/18 11:04:55;;;;;;;1.10;0.95;;;;;;;11.00;71.95;91783.58;1810287;79;21020;-77
2021/05/18 11:07:36;;;;;;;2.33;1.30;;;;;;;11.02;71.75;91789.93;1819028;78;21485;-78
2021/05/18 11:10:15;;;;;;;3.72;1.00;;;;;;;11.05;71.32;91790.42;1816873;78;21673;-80
2021/05/18 11:12:42;;;;;;;0.90;0.70;;;;;;;11.07;71.59;91785.31;1792910;78;21075;-77
2021/05/18 11:15:12;;;;;;;0.95;0.85;;;;;;;11.11;71.36;91790.80;1830944;78;21086;-80
2021/05/18 11:17:46;;;;;;;1.07;0.60;;;;;;;11.13;71.36;91791.14;1825958;78;21080;-79
2021/05/18 11:23:22;;;;;;;1.07;0.95;;;;;;;11.18;70.87;91800.70;1830679;77;21689;-74
2021/05/18 11:26:06;;;;;;;1.37;1.00;;;;;;;11.18;70.25;91801.45;1824274;77;21040;-76
2021/05/18 11:28:41;;;;;;;;;;;;;;;11.22;70.57;91798.63;1813085;79;21289;-75
2021/05/18 11:31:20;;;;;;;1.00;0.90;;;;;;;11.23;70.15;91802.10;1816707;78;20508;-74
2021/05/18 11:33:56;;;;;;;6.15;1.07;;;;;;;11.22;71.17;91813.59;1813123;77;21048;-74
2021/05/18 11:36:28;;;;;;;1.15;0.90;;;;;;;11.22;71.03;91812.23;1814496;79;21070;-75
2021/05/18 11:39:02;;;;;;;1.90;1.35;;;;;;;11.23;71.66;91809.66;1792650;79;21132;-75
2021/05/18 11:41:31;;;;;;;3.45;1.20;;;;;;;11.24;72.01;91813.14;1791547;79;21073;-75
2021/05/18 11:44:01;;;;;;;2.22;1.15;;;;;;;11.27;72.61;91816.35;1790604;80;21120;-74
2021/05/18 11:46:29;;;;;;;1.37;1.27;;;;;;;11.31;72.96;91820.47;1789049;79;21760;-75
2021/05/18 11:49:01;;;;;;;5.35;2.02;;;;;;;11.37;73.29;91820.70;1792679;78;21115;-77
2021/05/18 11:51:32;;;;;;;3.17;2.10;;;;;;;11.45;72.98;91821.22;1822059;78;21059;-76
2021/05/18 11:54:05;;;;;;;2.70;1.87;;;;;;;11.50;74.17;91822.02;1795500;79;21637;-75
2021/05/18 11:56:40;;;;;;;1.45;0.98;;;;;;;11.54;74.37;91825.38;1806194;78;21072;-78
2021/05/18 11:59:09;;;;;;;1.62;1.30;;;;;;;11.56;74.50;91826.47;1793920;78;21089;-78
2021/05/18 12:01:51;;;;;;;4.40;0.90;;;;;;;11.59;74.94;91826.20;1789575;79;21139;-77
2021/05/18 12:04:20;;;;;;;3.33;1.10;;;;;;;11.61;76.20;91820.46;1801308;78;21602;-80
2021/05/18 12:06:51;;;;;;;2.20;1.32;;;;;;;11.68;76.81;91831.72;1791488;80;21749;-78
2021/05/18 12:09:17;;;;;;;1.15;1.05;;;;;;;11.71;76.97;91828.13;1862491;76;21020;-76
2021/05/18 12:12:04;;;;;;;3.87;3.08;;;;;;;11.72;76.69;91832.97;1830789;77;21138;-75
2021/05/18 12:14:31;;;;;;;2.27;1.35;;;;;;;11.72;77.12;91829.64;1814135;78;21139;-78
2021/05/18 12:16:59;;;;;;;0.78;0.65;;;;;;;11.74;77.19;91831.94;1801166;78;21068;-78
2021/05/18 12:19:26;;;;;;;2.37;1.02;;;;;;;11.73;77.36;91833.12;1782537;80;21052;-76
2021/05/18 12:21:55;;;;;;;;;;;;;;;;;;;;;
2021/05/18 12:24:23;;;;;;;2.67;0.98;;;;;;;11.59;78.50;91833.01;1810259;79;21119;-77
2021/05/18 12:26:56;;;;;;;1.10;0.72;;;;;;;11.59;78.87;91837.85;1780899;78;21114;-81
2021/05/18 12:29:37;;;;;;;0.98;0.78;;;;;;;11.59;78.30;91834.38;1799761;78;21071;-76
2021/05/18 12:32:23;;;;;;;0.80;0.80;;;;;;;11.58;78.10;91836.91;1821406;78;21537;-80
2021/05/18 12:34:53;;;;;;;1.17;1.02;;;;;;;11.56;77.94;91839.33;1821716;78;21589;-80
2021/05/18 12:37:45;;;;;;;2.15;1.20;;;;;;;11.50;78.67;91836.98;1820705;78;21094;-77
2021/05/18 12:40:32;;;;;;;2.25;1.50;;;;;;;11.49;78.45;91843.64;1820235;78;21098;-82
2021/05/18 12:43:04;;;;;;;4.60;1.40;;;;;;;11.48;79.28;91839.41;1819310;78;21063;-81
2021/05/18 12:45:30;;;;;;;1.32;1.22;;;;;;;11.49;80.47;91845.76;1792264;78;21588;-79
2021/05/18 12:48:00;;;;;;;2.47;1.40;;;;;;;11.53;81.23;91850.48;1750871;79;21091;-81
2021/05/18 12:50:47;;;;;;;1.70;1.10;;;;;;;11.60;81.71;91853.58;1755067;81;21041;-79
2021/05/18 12:53:29;;;;;;;1.10;0.98;;;;;;;11.62;81.97;91859.33;1756994;79;21091;-80
2021/05/18 12:55:56;;;;;;;2.10;1.30;;;;;;;11.63;82.18;91864.36;1789811;78;21618;-76
2021/05/18 12:58:31;;;;;;;1.40;1.30;;;;;;;11.65;82.19;91857.09;1754431;81;21050;-79
2021/05/18 13:01:10;;;;;;;2.33;1.55;;;;;;;11.68;82.42;91858.95;1772506;80;21048;-81
2021/05/18 13:03:38;;;;;;;2.35;1.50;;;;;;;11.68;82.83;91860.31;1748207;81;21115;-81
2021/05/18 13:06:05;;;;;;;3.65;1.62;;;;;;;11.71;82.73;91859.44;1709941;82;21139;-80
2021/05/18 13:08:37;;;;;;;3.70;3.00;;;;;;;11.75;83.08;91862.05;1726006;80;21087;-77
2021/05/18 13:11:13;;;;;;;12.37;8.00;;;;;;;11.76;82.73;91860.23;1738033;79;20987;-81
2021/05/18 13:13:53;;;;;;;7.25;4.78;;;;;;;11.79;82.79;91866.77;1807076;78;21446;-79
2021/05/18 13:16:28;;;;;;;7.42;4.55;;;;;;;11.80;82.79;91870.41;1783933;77;21098;-81
2021/05/18 13:19:05;;;;;;;7.72;4.70;;;;;;;11.80;82.17;91869.64;1832429;78;21091;-82
2021/05/18 13:21:38;;;;;;;10.95;6.37;;;;;;;11.78;81.58;91870.70;1757644;78;21095;-80
2021/05/18 13:26:39;;;;;;;10.18;6.25;;;;;;;11.74;82.14;91872.78;1806606;78;21601;-82
2021/05/18 13:29:20;;;;;;;11.80;6.97;;;;;;;11.72;82.37;91874.56;1800903;78;21008;-81
2021/05/18 13:31:52;;;;;;;8.60;5.80;;;;;;;11.68;82.32;91876.64;1825158;78;21162;-80
2021/05/18 13:34:20;;;;;;;11.45;7.22;;;;;;;11.64;83.23;91871.92;1783035;80;21080;-82
2021/05/18 13:36:48;;;;;;;8.43;5.95;;;;;;;11.57;83.19;91875.63;1745416;81;21138;-81
2021/05/18 13:39:20;;;;;;;11.12;6.33;;;;;;;11.53;83.49;91874.98;1786795;80;21141;-84
2021/05/18 13:41:48;;;;;;;9.70;6.53;;;;;;;11.51;83.50;91886.92;1785031;79;21019;-82
2021/05/18 13:44:14;;;;;;;11.73;7.30;;;;;;;11.46;84.36;91882.02;1781981;80;21485;-81
2021/05/18 13:46:44;;;;;;;8.65;6.30;;;;;;;11.45;84.75;91872.94;1790015;77;21017;-83
2021/05/18 13:49:13;;;;;;;9.55;5.45;;;;;;;11.44;85.04;91878.98;1858378;77;20992;-81
2021/05/18 13:51:42;;;;;;;9.08;5.25;;;;;;;11.40;84.61;91878.34;1839438;77;20973;-82
2021/05/18 13:54:10;;;;;;;8.55;4.78;;;;;;;11.36;84.85;91875.72;1825285;77;21012;-82
2021/05/18 13:56:37;;;;;;;7.45;4.80;;;;;;;11.35;84.84;91882.95;1820343;78;21074;-80
2021/05/18 13:59:03;;;;;;;7.42;4.30;;;;;;;11.37;84.82;91892.20;1822635;77;21547;-82
2021/05/18 14:01:30;;;;;;;5.45;3.83;;;;;;;11.38;84.24;91895.08;1835969;78;20992;-82
2021/05/18 14:03:56;;;;;;;6.12;3.17;;;;;;;11.39;84.50;91893.88;1828982;77;21163;-81
2021/05/18 14:06:23;;;;;;;3.42;2.92;;;;;;;11.41;84.54;91890.73;1867313;76;20952;-81
2021/05/18 14:08:50;;;;;;;2.90;1.90;;;;;;;11.44;84.72;91895.31;1852187;76;21789;-80
2021/05/18 14:11:18;;;;;;;2.65;1.75;;;;;;;11.40;82.91;91888.62;1805248;78;21133;-82
2021/05/18 14:13:51;;;;;;;1.60;1.50;;;;;;;11.33;82.28;91891.56;1789518;80;21118;-81
2021/05/18 14:16:19;;;;;;;2.55;2.08;;;;;;;11.28;82.42;91896.17;1788691;78;21103;-81
2021/05/18 14:18:49;;;;;;;2.95;2.25;;;;;;;11.26;83.50;91895.09;1852857;77;21071;-81
2021/05/18 14:21:16;;;;;;;2.58;2.37;;;;;;;11.24;83.21;91896.88;1784450;77;21089;-80
2021/05/18 14:26:10;;;;;;;2.62;2.20;;;;;;;11.10;83.55;91902.17;1827375;78;21075;-81
2021/05/18 14:28:38;;;;;;;3.08;2.20;;;;;;;10.98;83.62;91900.19;1787951;80;21114;-80
2021/05/18 14:31:09;;;;;;;2.70;2.12;;;;;;;10.87;84.11;91907.90;1774120;80;21128;-79
2021/05/18 14:33:38;;;;;;;3.37;2.65;;;;;;;10.80;84.24;91906.77;1786165;80;21138;-82
2021/05/18 14:36:08;;;;;;;3.50;1.98;;;;;;;10.72;84.30;91914.37;1764035;80;21116;-82
2021/05/18 14:38:35;;;;;;;2.00;1.72;;;;;;;10.72;84.52;91908.94;1764093;80;21079;-80
2021/05/18 14:54:45;;;;;;;3.08;2.00;;;;;;;10.62;84.79;91919.50;1737324;81;21647;-82
2021/05/18 14:56:54;;;;;;;2.30;2.05;;;;;;;10.60;85.13;91909.64;1730717;78;21098;-80
2021/05/18 14:59:21;;;;;;;4.95;2.47;;;;;;;10.57;84.89;91922.16;1807349;78;21049;-78
2021/05/18 15:01:47;;;;;;;3.00;2.00;;;;;;;10.54;85.15;91912.74;1748052;82;21634;-78
2021/05/18 15:04:13;;;;;;;2.67;2.10;;;;;;;10.50;85.64;91918.28;1814621;77;21507;-83
2021/05/18 15:06:41;;;;;;;2.75;1.95;;;;;;;10.45;85.87;91913.35;1793508;78;21086;-83
2021/05/18 15:09:08;;;;;;;2.95;2.35;;;;;;;10.42;85.88;91917.71;1794607;79;21110;-82
2021/05/18 15:11:36;;;;;;;4.08;2.40;;;;;;;10.43;85.95;91917.11;1798156;79;21169;-81
2021/05/18 15:14:07;;;;;;;3.33;2.58;;;;;;;10.43;86.32;91923.91;1765321;80;21100;-79
2021/05/18 15:16:35;;;;;;;3.77;2.92;;;;;;;10.43;86.76;91923.91;1781016;80;21107;-80
2021/05/18 15:19:09;;;;;;;4.35;2.10;;;;;;;10.40;86.43;91928.23;1781324;80;21641;-80
2021/05/18 15:21:32;;;;;;;3.33;2.83;;;;;;;10.35;85.23;91921.98;1781403;79;21095;-80
2021/05/18 15:23:59;;;;;;;3.50;2.22;;;;;;;10.31;85.89;91925.98;1782031;80;21181;-79
2021/05/18 15:26:26;;;;;;;4.33;3.30;;;;;;;10.29;86.05;91937.86;1782084;79;21147;-79
2021/05/18 15:28:52;;;;;;;2.58;2.25;;;;;;;10.30;87.00;91933.95;1781520;80;21575;-81
2021/05/18 15:31:20;;;;;;;1.67;1.57;;;;;;;10.30;87.00;91932.59;1781513;80;21076;-81
2021/05/18 15:33:46;;;;;;;1.95;1.67;;;;;;;10.25;85.72;91940.67;1765932;80;21072;-80
2021/05/18 15:36:13;;;;;;;2.62;2.02;;;;;;;10.22;85.21;91938.18;1792786;79;21054;-80
2021/05/18 15:38:39;;;;;;;1.65;1.52;;;;;;;10.19;85.04;91943.13;1798872;78;21013;-82
2021/05/18 15:41:07;;;;;;;1.75;1.32;;;;;;;10.15;85.17;91940.32;1782671;80;21095;-80
2021/05/18 15:43:35;;;;;;;1.37;1.27;;;;;;;10.07;83.54;91950.61;1830801;78;21000;-82
2021/05/18 15:46:06;;;;;;;1.30;1.00;;;;;;;9.98;82.64;91947.75;1791054;78;21060;-79
2021/05/18 15:48:33;;;;;;;1.35;1.22;;;;;;;9.92;82.86;91946.13;1755737;80;21044;-81
2021/05/18 15:51:00;;;;;;;1.52;1.40;;;;;;;9.91;83.03;91938.42;1774068;80;21073;-81
2021/05/18 15:53:26;;;;;;;0.60;0.60;;;;;;;9.92;83.29;91946.13;1780904;78;21048;-78
2021/05/18 15:55:52;;;;;;;1.30;1.20;;;;;;;9.93;82.90;91947.67;1834288;78;21012;-80
2021/05/18 15:58:19;;;;;;;3.00;1.50;;;;;;;9.95;83.08;91946.64;1763607;78;21043;-80
2021/05/18 16:00:47;;;;;;;2.30;1.85;;;;;;;9.98;83.11;91951.82;1763211;81;21150;-81
2021/05/18 16:03:15;;;;;;;2.15;1.60;;;;;;;10.01;82.75;91953.69;1770776;80;21021;-82
2021/05/18 16:05:43;;;;;;;2.80;1.60;;;;;;;10.00;83.39;91957.58;1766092;80;21084;-81
2021/05/18 16:10:44;;;;;;;2.55;2.17;;;;;;;10.01;84.37;91969.22;1826555;78;21086;-80
2021/05/18 16:13:11;;;;;;;2.85;2.50;;;;;;;10.01;83.87;91959.13;1797806;77;21631;-80
2021/05/18 16:15:39;;;;;;;4.97;2.70;;;;;;;10.00;83.39;91959.53;1808940;78;21031;-79
2021/05/18 16:18:07;;;;;;;2.75;2.40;;;;;;;9.96;83.68;91966.41;1801986;78;21021;-80
2021/05/18 16:20:33;;;;;;;1.67;1.30;;;;;;;9.93;84.36;91961.25;1756090;79;21748;-79
2021/05/18 16:22:59;;;;;;;2.10;1.72;;;;;;;9.94;84.79;91961.41;1807256;78;21069;-82
2021/05/18 16:25:26;;;;;;;2.40;2.20;;;;;;;9.91;85.54;91976.44;1791468;78;22130;-79
2021/05/18 16:27:53;;;;;;;1.85;1.75;;;;;;;9.89;85.91;91974.16;1799503;78;20972;-80
2021/05/18 16:30:20;;;;;;;5.05;4.58;;;;;;;9.85;84.14;91969.38;1837314;77;20897;-81
2021/05/18 16:32:46;;;;;;;3.65;1.72;;;;;;;9.81;84.84;91973.38;1835988;78;21625;-80
2021/05/18 16:35:13;;;;;;;1.57;1.47;;;;;;;9.80;86.01;91971.86;1820973;78;20952;-81
2021/05/18 16:37:40;;;;;;;1.75;1.42;;;;;;;9.72;86.69;91976.69;1821451;78;21047;-82
2021/05/18 16:40:09;;;;;;;2.87;1.10;;;;;;;9.61;87.51;91978.89;1830489;78;21072;-81
2021/05/18 16:42:37;;;;;;;1.30;1.20;;;;;;;9.47;88.28;91978.02;1828244;78;21062;-81
2021/05/18 16:45:05;;;;;;;1.87;1.60;;;;;;;9.42;88.77;91981.84;1830553;76;21076;-79
2021/05/18 16:47:31;;;;;;;2.37;1.92;;;;;;;9.38;89.00;91981.16;1868462;76;21626;-79
2021/05/18 16:49:58;;;;;;;3.45;1.98;;;;;;;9.38;89.11;91985.23;1819818;76;21166;-82
2021/05/18 16:52:24;;;;;;;2.65;1.82;;;;;;;9.44;89.06;91983.53;1819335;78;21136;-80